sensor_id;sensor_type;location;lat;lon;timestamp;P1;durP1;ratioP1;P2;durP2;ratioP2
4963;SDS011;2497;47.410;9.740;2023-07-24T00:01:55;14.20;;;6.10;;
4963;SDS011;2497;47.410;9.740;2023-07-24T00:04:22;11.97;;;6.03;;
4963;SDS011;2497;47.410;9.740;2023-07-24T00:06:49;13.73;;;6.73;;
4963;SDS011;2497;47.410;9.740;2023-07-24T00:09:17;17.27;;;7.10;;
4963;SDS011;2497;47.410;9.740;2023-07-24T00:11:44;14.87;;;6.37;;
4963;SDS011;2497;47.410;9.740;2023-07-24T00:14:11;13.70;;;6.03;;
4963;SDS011;2497;47.410;9.740;2023-07-24T00:16:38;16.00;;;7.63;;
4963;SDS011;2497;47.410;9.740;2023-07-24T00:19:08;16.03;;;6.93;;
4963;SDS011;2497;47.410;9.740;2023-07-24T00:21:37;15.57;;;7.17;;
4963;SDS011;2497;47.410;9.740;2023-07-24T00:24:04;18.17;;;8.03;;
4963;SDS011;2497;47.410;9.740;2023-07-24T00:26:35;15.90;;;6.43;;
4963;SDS011;2497;47.410;9.740;2023-07-24T00:29:02;14.00;;;6.30;;
4963;SDS011;2497;47.410;9.740;2023-07-24T00:31:29;14.70;;;5.83;;
4963;SDS011;2497;47.410;9.740;2023-07-24T00:33:56;16.53;;;6.47;;
4963;SDS011;2497;47.410;9.740;2023-07-24T00:36:28;13.53;;;6.97;;
4963;SDS011;2497;47.410;9.740;2023-07-24T00:38:55;15.90;;;6.73;;
4963;SDS011;2497;47.410;9.740;2023-07-24T00:41:22;16.37;;;6.37;;
4963;SDS011;2497;47.410;9.740;2023-07-24T00:43:50;13.93;;;6.63;;
4963;SDS011;2497;47.410;9.740;2023-07-24T00:46:17;17.00;;;6.97;;
4963;SDS011;2497;47.410;9.740;2023-07-24T00:48:46;17.80;;;7.17;;
4963;SDS011;2497;47.410;9.740;2023-07-24T00:51:13;13.33;;;6.30;;
4963;SDS011;2497;47.410;9.740;2023-07-24T00:53:40;15.83;;;6.73;;
4963;SDS011;2497;47.410;9.740;2023-07-24T00:56:07;14.63;;;6.40;;
4963;SDS011;2497;47.410;9.740;2023-07-24T00:58:35;14.47;;;7.13;;
4963;SDS011;2497;47.410;9.740;2023-07-24T01:01:06;15.60;;;6.57;;
4963;SDS011;2497;47.410;9.740;2023-07-24T01:03:34;17.23;;;7.17;;
4963;SDS011;2497;47.410;9.740;2023-07-24T01:06:03;17.13;;;6.87;;
4963;SDS011;2497;47.410;9.740;2023-07-24T01:08:30;15.47;;;7.00;;
4963;SDS011;2497;47.410;9.740;2023-07-24T01:11:00;17.97;;;7.90;;
4963;SDS011;2497;47.410;9.740;2023-07-24T01:13:32;18.73;;;6.93;;
4963;SDS011;2497;47.410;9.740;2023-07-24T01:16:05;15.70;;;7.17;;
4963;SDS011;2497;47.410;9.740;2023-07-24T01:18:44;14.67;;;6.90;;
4963;SDS011;2497;47.410;9.740;2023-07-24T01:21:13;17.20;;;7.20;;
4963;SDS011;2497;47.410;9.740;2023-07-24T01:23:44;15.03;;;6.73;;
4963;SDS011;2497;47.410;9.740;2023-07-24T01:26:27;18.00;;;8.33;;
4963;SDS011;2497;47.410;9.740;2023-07-24T01:28:57;20.30;;;7.07;;
4963;SDS011;2497;47.410;9.740;2023-07-24T01:31:24;16.57;;;7.20;;
4963;SDS011;2497;47.410;9.740;2023-07-24T01:33:51;15.03;;;6.77;;
4963;SDS011;2497;47.410;9.740;2023-07-24T01:36:18;15.30;;;6.47;;
4963;SDS011;2497;47.410;9.740;2023-07-24T01:38:45;13.70;;;5.50;;
4963;SDS011;2497;47.410;9.740;2023-07-24T01:41:14;13.73;;;6.60;;
4963;SDS011;2497;47.410;9.740;2023-07-24T01:43:43;15.40;;;6.50;;
4963;SDS011;2497;47.410;9.740;2023-07-24T01:46:10;15.50;;;7.57;;
4963;SDS011;2497;47.410;9.740;2023-07-24T01:48:37;16.73;;;6.40;;
4963;SDS011;2497;47.410;9.740;2023-07-24T01:51:04;13.00;;;6.57;;
4963;SDS011;2497;47.410;9.740;2023-07-24T01:53:31;13.50;;;6.10;;
4963;SDS011;2497;47.410;9.740;2023-07-24T01:55:58;15.23;;;6.90;;
4963;SDS011;2497;47.410;9.740;2023-07-24T01:58:26;13.57;;;5.90;;
4963;SDS011;2497;47.410;9.740;2023-07-24T02:00:56;17.00;;;6.47;;
4963;SDS011;2497;47.410;9.740;2023-07-24T02:03:23;16.23;;;6.40;;
4963;SDS011;2497;47.410;9.740;2023-07-24T02:05:50;11.87;;;6.10;;
4963;SDS011;2497;47.410;9.740;2023-07-24T02:08:18;14.00;;;5.43;;
4963;SDS011;2497;47.410;9.740;2023-07-24T02:10:48;16.43;;;5.90;;
4963;SDS011;2497;47.410;9.740;2023-07-24T02:13:15;12.33;;;5.40;;
4963;SDS011;2497;47.410;9.740;2023-07-24T02:15:42;14.10;;;6.40;;
4963;SDS011;2497;47.410;9.740;2023-07-24T02:18:12;17.20;;;7.10;;
4963;SDS011;2497;47.410;9.740;2023-07-24T02:20:39;13.70;;;6.83;;
4963;SDS011;2497;47.410;9.740;2023-07-24T02:23:08;17.13;;;6.40;;
4963;SDS011;2497;47.410;9.740;2023-07-24T02:25:36;18.87;;;7.37;;
4963;SDS011;2497;47.410;9.740;2023-07-24T02:28:06;18.53;;;6.10;;
4963;SDS011;2497;47.410;9.740;2023-07-24T02:30:34;14.00;;;6.87;;
4963;SDS011;2497;47.410;9.740;2023-07-24T02:33:04;14.53;;;6.33;;
4963;SDS011;2497;47.410;9.740;2023-07-24T02:35:37;12.50;;;6.13;;
4963;SDS011;2497;47.410;9.740;2023-07-24T02:38:05;12.40;;;6.80;;
4963;SDS011;2497;47.410;9.740;2023-07-24T02:40:32;14.03;;;6.50;;
4963;SDS011;2497;47.410;9.740;2023-07-24T02:42:59;17.00;;;6.47;;
4963;SDS011;2497;47.410;9.740;2023-07-24T02:45:26;15.27;;;6.97;;
4963;SDS011;2497;47.410;9.740;2023-07-24T02:47:53;14.70;;;6.67;;
4963;SDS011;2497;47.410;9.740;2023-07-24T02:50:20;18.00;;;7.30;;
4963;SDS011;2497;47.410;9.740;2023-07-24T02:52:49;17.30;;;6.63;;
4963;SDS011;2497;47.410;9.740;2023-07-24T02:55:16;13.53;;;6.70;;
4963;SDS011;2497;47.410;9.740;2023-07-24T02:57:43;16.63;;;6.87;;
4963;SDS011;2497;47.410;9.740;2023-07-24T03:00:10;21.00;;;7.73;;
4963;SDS011;2497;47.410;9.740;2023-07-24T03:02:38;16.03;;;6.70;;
4963;SDS011;2497;47.410;9.740;2023-07-24T03:05:05;15.57;;;6.60;;
4963;SDS011;2497;47.410;9.740;2023-07-24T03:07:32;12.73;;;6.47;;
4963;SDS011;2497;47.410;9.740;2023-07-24T03:10:01;17.37;;;7.10;;
4963;SDS011;2497;47.410;9.740;2023-07-24T03:12:28;14.83;;;6.63;;
4963;SDS011;2497;47.410;9.740;2023-07-24T03:14:58;11.03;;;5.83;;
4963;SDS011;2497;47.410;9.740;2023-07-24T03:17:26;18.10;;;7.70;;
4963;SDS011;2497;47.410;9.740;2023-07-24T03:19:53;11.73;;;5.93;;
4963;SDS011;2497;47.410;9.740;2023-07-24T03:22:21;15.87;;;7.13;;
4963;SDS011;2497;47.410;9.740;2023-07-24T03:24:48;17.33;;;6.73;;
4963;SDS011;2497;47.410;9.740;2023-07-24T03:27:18;13.60;;;6.70;;
4963;SDS011;2497;47.410;9.740;2023-07-24T03:29:45;14.57;;;6.27;;
4963;SDS011;2497;47.410;9.740;2023-07-24T03:32:12;14.00;;;6.57;;
4963;SDS011;2497;47.410;9.740;2023-07-24T03:34:39;16.37;;;7.47;;
4963;SDS011;2497;47.410;9.740;2023-07-24T03:37:06;13.97;;;6.90;;
4963;SDS011;2497;47.410;9.740;2023-07-24T03:39:33;15.30;;;6.60;;
4963;SDS011;2497;47.410;9.740;2023-07-24T03:42:01;16.03;;;7.00;;
4963;SDS011;2497;47.410;9.740;2023-07-24T03:44:30;12.50;;;6.00;;
4963;SDS011;2497;47.410;9.740;2023-07-24T03:46:57;13.83;;;6.67;;
4963;SDS011;2497;47.410;9.740;2023-07-24T03:49:24;12.03;;;5.93;;
4963;SDS011;2497;47.410;9.740;2023-07-24T03:51:51;16.10;;;6.97;;
4963;SDS011;2497;47.410;9.740;2023-07-24T03:54:18;14.17;;;6.93;;
4963;SDS011;2497;47.410;9.740;2023-07-24T03:56:45;12.67;;;6.20;;
4963;SDS011;2497;47.410;9.740;2023-07-24T03:59:12;13.87;;;6.53;;
4963;SDS011;2497;47.410;9.740;2023-07-24T04:01:40;15.73;;;6.70;;
4963;SDS011;2497;47.410;9.740;2023-07-24T04:04:07;16.03;;;6.97;;
4963;SDS011;2497;47.410;9.740;2023-07-24T04:06:36;12.87;;;5.77;;
4963;SDS011;2497;47.410;9.740;2023-07-24T04:09:03;17.40;;;6.93;;
4963;SDS011;2497;47.410;9.740;2023-07-24T04:11:30;12.23;;;6.00;;
4963;SDS011;2497;47.410;9.740;2023-07-24T04:13:57;16.50;;;6.47;;
4963;SDS011;2497;47.410;9.740;2023-07-24T04:16:24;13.83;;;6.40;;
4963;SDS011;2497;47.410;9.740;2023-07-24T04:18:52;17.30;;;7.50;;
4963;SDS011;2497;47.410;9.740;2023-07-24T04:21:20;15.20;;;6.77;;
4963;SDS011;2497;47.410;9.740;2023-07-24T04:23:48;13.63;;;6.73;;
4963;SDS011;2497;47.410;9.740;2023-07-24T04:26:15;15.90;;;6.90;;
4963;SDS011;2497;47.410;9.740;2023-07-24T04:28:42;16.07;;;6.83;;
4963;SDS011;2497;47.410;9.740;2023-07-24T04:31:09;18.97;;;7.40;;
4963;SDS011;2497;47.410;9.740;2023-07-24T04:33:36;17.63;;;7.87;;
4963;SDS011;2497;47.410;9.740;2023-07-24T04:36:04;17.10;;;6.77;;
4963;SDS011;2497;47.410;9.740;2023-07-24T04:38:31;16.17;;;7.50;;
4963;SDS011;2497;47.410;9.740;2023-07-24T04:40:59;16.17;;;7.57;;
4963;SDS011;2497;47.410;9.740;2023-07-24T04:43:27;14.23;;;6.73;;
4963;SDS011;2497;47.410;9.740;2023-07-24T04:45:54;14.93;;;6.83;;
4963;SDS011;2497;47.410;9.740;2023-07-24T04:48:21;16.47;;;7.00;;
4963;SDS011;2497;47.410;9.740;2023-07-24T04:50:52;14.60;;;6.53;;
4963;SDS011;2497;47.410;9.740;2023-07-24T04:53:21;21.03;;;8.33;;
4963;SDS011;2497;47.410;9.740;2023-07-24T04:55:49;15.00;;;6.43;;
4963;SDS011;2497;47.410;9.740;2023-07-24T04:58:16;10.70;;;5.93;;
4963;SDS011;2497;47.410;9.740;2023-07-24T05:00:43;11.60;;;6.17;;
4963;SDS011;2497;47.410;9.740;2023-07-24T05:03:10;16.50;;;6.73;;
4963;SDS011;2497;47.410;9.740;2023-07-24T05:05:37;14.77;;;7.03;;
4963;SDS011;2497;47.410;9.740;2023-07-24T05:08:04;20.13;;;6.77;;
4963;SDS011;2497;47.410;9.740;2023-07-24T05:10:35;19.53;;;7.40;;
4963;SDS011;2497;47.410;9.740;2023-07-24T05:13:02;17.83;;;6.70;;
4963;SDS011;2497;47.410;9.740;2023-07-24T05:15:29;15.87;;;6.83;;
4963;SDS011;2497;47.410;9.740;2023-07-24T05:17:56;12.40;;;6.57;;
4963;SDS011;2497;47.410;9.740;2023-07-24T05:20:25;14.03;;;6.80;;
4963;SDS011;2497;47.410;9.740;2023-07-24T05:22:52;17.60;;;7.60;;
4963;SDS011;2497;47.410;9.740;2023-07-24T05:25:19;11.13;;;5.90;;
4963;SDS011;2497;47.410;9.740;2023-07-24T05:27:47;14.23;;;7.63;;
4963;SDS011;2497;47.410;9.740;2023-07-24T05:30:17;13.40;;;6.10;;
4963;SDS011;2497;47.410;9.740;2023-07-24T05:32:47;19.10;;;7.90;;
4963;SDS011;2497;47.410;9.740;2023-07-24T05:35:14;17.27;;;6.50;;
4963;SDS011;2497;47.410;9.740;2023-07-24T05:37:41;14.23;;;6.97;;
4963;SDS011;2497;47.410;9.740;2023-07-24T05:40:08;16.63;;;7.10;;
4963;SDS011;2497;47.410;9.740;2023-07-24T05:42:35;10.93;;;5.40;;
4963;SDS011;2497;47.410;9.740;2023-07-24T05:45:08;13.17;;;5.70;;
4963;SDS011;2497;47.410;9.740;2023-07-24T05:47:36;13.00;;;5.70;;
4963;SDS011;2497;47.410;9.740;2023-07-24T05:50:04;21.63;;;7.67;;
4963;SDS011;2497;47.410;9.740;2023-07-24T05:52:31;13.23;;;6.27;;
4963;SDS011;2497;47.410;9.740;2023-07-24T05:55:01;14.97;;;5.87;;
4963;SDS011;2497;47.410;9.740;2023-07-24T05:57:29;7.70;;;3.73;;
4963;SDS011;2497;47.410;9.740;2023-07-24T06:03:05;6.80;;;2.93;;
4963;SDS011;2497;47.410;9.740;2023-07-24T06:05:32;6.30;;;3.50;;
4963;SDS011;2497;47.410;9.740;2023-07-24T06:07:59;6.53;;;3.20;;
4963;SDS011;2497;47.410;9.740;2023-07-24T06:10:26;10.27;;;4.37;;
4963;SDS011;2497;47.410;9.740;2023-07-24T06:12:53;8.57;;;4.60;;
4963;SDS011;2497;47.410;9.740;2023-07-24T06:15:22;20.47;;;5.60;;
4963;SDS011;2497;47.410;9.740;2023-07-24T06:17:51;14.67;;;4.50;;
4963;SDS011;2497;47.410;9.740;2023-07-24T06:20:20;10.33;;;5.20;;
4963;SDS011;2497;47.410;9.740;2023-07-24T06:22:47;9.00;;;5.13;;
4963;SDS011;2497;47.410;9.740;2023-07-24T06:25:14;13.67;;;6.20;;
4963;SDS011;2497;47.410;9.740;2023-07-24T06:27:43;12.47;;;5.90;;
4963;SDS011;2497;47.410;9.740;2023-07-24T06:30:12;14.47;;;6.10;;
4963;SDS011;2497;47.410;9.740;2023-07-24T06:32:39;13.40;;;6.27;;
4963;SDS011;2497;47.410;9.740;2023-07-24T06:35:06;9.93;;;5.30;;
4963;SDS011;2497;47.410;9.740;2023-07-24T06:37:38;14.07;;;5.50;;
4963;SDS011;2497;47.410;9.740;2023-07-24T06:40:12;14.30;;;4.63;;
4963;SDS011;2497;47.410;9.740;2023-07-24T06:42:39;17.27;;;5.30;;
4963;SDS011;2497;47.410;9.740;2023-07-24T06:45:06;10.83;;;5.03;;
4963;SDS011;2497;47.410;9.740;2023-07-24T06:47:34;6.20;;;3.10;;
4963;SDS011;2497;47.410;9.740;2023-07-24T06:50:02;8.10;;;4.30;;
4963;SDS011;2497;47.410;9.740;2023-07-24T06:52:29;10.27;;;4.60;;
4963;SDS011;2497;47.410;9.740;2023-07-24T06:54:58;10.10;;;4.17;;
4963;SDS011;2497;47.410;9.740;2023-07-24T06:57:25;10.83;;;4.10;;
4963;SDS011;2497;47.410;9.740;2023-07-24T06:59:52;7.70;;;3.83;;
4963;SDS011;2497;47.410;9.740;2023-07-24T07:02:19;9.73;;;3.77;;
4963;SDS011;2497;47.410;9.740;2023-07-24T07:04:47;7.53;;;4.00;;
4963;SDS011;2497;47.410;9.740;2023-07-24T07:07:13;8.80;;;4.23;;
4963;SDS011;2497;47.410;9.740;2023-07-24T07:09:41;12.43;;;4.37;;
4963;SDS011;2497;47.410;9.740;2023-07-24T07:12:09;8.47;;;4.03;;
4963;SDS011;2497;47.410;9.740;2023-07-24T07:14:39;10.47;;;4.53;;
4963;SDS011;2497;47.410;9.740;2023-07-24T07:17:13;9.20;;;4.30;;
4963;SDS011;2497;47.410;9.740;2023-07-24T07:19:42;9.87;;;4.33;;
4963;SDS011;2497;47.410;9.740;2023-07-24T07:22:10;7.13;;;3.83;;
4963;SDS011;2497;47.410;9.740;2023-07-24T07:24:37;11.00;;;4.90;;
4963;SDS011;2497;47.410;9.740;2023-07-24T07:27:04;11.20;;;4.80;;
4963;SDS011;2497;47.410;9.740;2023-07-24T07:29:33;6.97;;;4.43;;
4963;SDS011;2497;47.410;9.740;2023-07-24T07:32:00;8.47;;;4.03;;
4963;SDS011;2497;47.410;9.740;2023-07-24T07:34:30;8.17;;;4.30;;
4963;SDS011;2497;47.410;9.740;2023-07-24T07:36:59;11.93;;;4.70;;
4963;SDS011;2497;47.410;9.740;2023-07-24T07:39:27;8.83;;;4.60;;
4963;SDS011;2497;47.410;9.740;2023-07-24T07:41:55;8.33;;;4.90;;
4963;SDS011;2497;47.410;9.740;2023-07-24T07:44:22;5.33;;;3.80;;
4963;SDS011;2497;47.410;9.740;2023-07-24T07:46:51;7.33;;;4.60;;
4963;SDS011;2497;47.410;9.740;2023-07-24T07:49:18;8.43;;;3.70;;
4963;SDS011;2497;47.410;9.740;2023-07-24T07:51:45;8.60;;;4.03;;
4963;SDS011;2497;47.410;9.740;2023-07-24T07:54:12;12.43;;;4.90;;
4963;SDS011;2497;47.410;9.740;2023-07-24T07:56:40;12.57;;;5.60;;
4963;SDS011;2497;47.410;9.740;2023-07-24T07:59:10;11.60;;;5.40;;
4963;SDS011;2497;47.410;9.740;2023-07-24T08:01:39;11.23;;;4.90;;
4963;SDS011;2497;47.410;9.740;2023-07-24T08:04:08;10.90;;;3.83;;
4963;SDS011;2497;47.410;9.740;2023-07-24T08:06:36;9.63;;;4.20;;
4963;SDS011;2497;47.410;9.740;2023-07-24T08:09:03;6.63;;;3.90;;
4963;SDS011;2497;47.410;9.740;2023-07-24T08:11:33;9.00;;;4.40;;
4963;SDS011;2497;47.410;9.740;2023-07-24T08:14:00;9.30;;;4.80;;
4963;SDS011;2497;47.410;9.740;2023-07-24T08:16:28;13.30;;;4.67;;
4963;SDS011;2497;47.410;9.740;2023-07-24T08:18:55;9.40;;;4.63;;
4963;SDS011;2497;47.410;9.740;2023-07-24T08:21:27;11.93;;;5.63;;
4963;SDS011;2497;47.410;9.740;2023-07-24T08:23:55;6.70;;;3.90;;
4963;SDS011;2497;47.410;9.740;2023-07-24T08:26:23;8.90;;;4.70;;
4963;SDS011;2497;47.410;9.740;2023-07-24T08:28:51;6.97;;;4.37;;
4963;SDS011;2497;47.410;9.740;2023-07-24T08:31:18;7.37;;;4.63;;
4963;SDS011;2497;47.410;9.740;2023-07-24T08:33:46;11.57;;;5.17;;
4963;SDS011;2497;47.410;9.740;2023-07-24T08:36:13;15.53;;;4.20;;
4963;SDS011;2497;47.410;9.740;2023-07-24T08:38:42;10.03;;;4.73;;
4963;SDS011;2497;47.410;9.740;2023-07-24T08:41:09;8.20;;;4.63;;
4963;SDS011;2497;47.410;9.740;2023-07-24T08:43:42;10.47;;;4.57;;
4963;SDS011;2497;47.410;9.740;2023-07-24T08:46:10;9.60;;;4.73;;
4963;SDS011;2497;47.410;9.740;2023-07-24T08:48:38;6.77;;;3.87;;
4963;SDS011;2497;47.410;9.740;2023-07-24T08:51:07;8.43;;;4.50;;
4963;SDS011;2497;47.410;9.740;2023-07-24T08:53:35;9.40;;;4.40;;
4963;SDS011;2497;47.410;9.740;2023-07-24T08:56:06;12.30;;;4.43;;
4963;SDS011;2497;47.410;9.740;2023-07-24T08:58:40;11.17;;;4.30;;
4963;SDS011;2497;47.410;9.740;2023-07-24T09:01:08;8.03;;;4.33;;
4963;SDS011;2497;47.410;9.740;2023-07-24T09:03:38;8.60;;;4.20;;
4963;SDS011;2497;47.410;9.740;2023-07-24T09:06:06;6.73;;;3.90;;
4963;SDS011;2497;47.410;9.740;2023-07-24T09:08:34;6.77;;;4.20;;
4963;SDS011;2497;47.410;9.740;2023-07-24T09:11:03;9.20;;;4.30;;
4963;SDS011;2497;47.410;9.740;2023-07-24T09:13:34;12.50;;;4.33;;
4963;SDS011;2497;47.410;9.740;2023-07-24T09:16:09;8.50;;;4.37;;
4963;SDS011;2497;47.410;9.740;2023-07-24T09:18:48;9.00;;;4.60;;
4963;SDS011;2497;47.410;9.740;2023-07-24T09:21:26;9.60;;;4.10;;
4963;SDS011;2497;47.410;9.740;2023-07-24T09:23:55;10.53;;;5.50;;
4963;SDS011;2497;47.410;9.740;2023-07-24T09:26:24;10.40;;;4.10;;
4963;SDS011;2497;47.410;9.740;2023-07-24T09:28:52;10.30;;;4.70;;
4963;SDS011;2497;47.410;9.740;2023-07-24T09:31:20;11.03;;;4.87;;
4963;SDS011;2497;47.410;9.740;2023-07-24T09:33:48;8.50;;;4.80;;
4963;SDS011;2497;47.410;9.740;2023-07-24T09:36:15;11.40;;;5.10;;
4963;SDS011;2497;47.410;9.740;2023-07-24T09:38:43;7.73;;;4.20;;
4963;SDS011;2497;47.410;9.740;2023-07-24T09:41:11;12.80;;;5.27;;
4963;SDS011;2497;47.410;9.740;2023-07-24T09:43:41;7.93;;;4.90;;
4963;SDS011;2497;47.410;9.740;2023-07-24T09:46:09;8.60;;;4.57;;
4963;SDS011;2497;47.410;9.740;2023-07-24T09:48:36;9.73;;;5.93;;
4963;SDS011;2497;47.410;9.740;2023-07-24T09:51:03;12.10;;;5.93;;
4963;SDS011;2497;47.410;9.740;2023-07-24T09:53:32;7.37;;;4.47;;
4963;SDS011;2497;47.410;9.740;2023-07-24T09:56:05;12.07;;;5.30;;
4963;SDS011;2497;47.410;9.740;2023-07-24T09:58:33;9.13;;;5.30;;
4963;SDS011;2497;47.410;9.740;2023-07-24T10:01:08;12.90;;;5.30;;
4963;SDS011;2497;47.410;9.740;2023-07-24T10:03:38;9.73;;;5.47;;
4963;SDS011;2497;47.410;9.740;2023-07-24T10:06:08;14.93;;;5.50;;
4963;SDS011;2497;47.410;9.740;2023-07-24T10:08:36;8.97;;;5.67;;
4963;SDS011;2497;47.410;9.740;2023-07-24T10:11:05;12.60;;;4.83;;
4963;SDS011;2497;47.410;9.740;2023-07-24T10:13:34;9.53;;;5.07;;
4963;SDS011;2497;47.410;9.740;2023-07-24T10:16:02;10.53;;;5.37;;
4963;SDS011;2497;47.410;9.740;2023-07-24T10:18:35;9.43;;;5.73;;
4963;SDS011;2497;47.410;9.740;2023-07-24T10:21:09;10.33;;;5.37;;
4963;SDS011;2497;47.410;9.740;2023-07-24T10:23:41;9.73;;;5.40;;
4963;SDS011;2497;47.410;9.740;2023-07-24T10:26:11;8.50;;;5.10;;
4963;SDS011;2497;47.410;9.740;2023-07-24T10:28:40;13.47;;;6.63;;
4963;SDS011;2497;47.410;9.740;2023-07-24T10:31:08;12.73;;;5.20;;
4963;SDS011;2497;47.410;9.740;2023-07-24T10:33:49;11.37;;;5.30;;
4963;SDS011;2497;47.410;9.740;2023-07-24T10:36:17;9.40;;;4.80;;
4963;SDS011;2497;47.410;9.740;2023-07-24T10:38:46;7.83;;;4.27;;
4963;SDS011;2497;47.410;9.740;2023-07-24T10:41:19;5.27;;;3.63;;
4963;SDS011;2497;47.410;9.740;2023-07-24T10:43:52;5.80;;;3.43;;
4963;SDS011;2497;47.410;9.740;2023-07-24T10:46:40;7.53;;;4.10;;
4963;SDS011;2497;47.410;9.740;2023-07-24T10:49:10;6.77;;;3.40;;
4963;SDS011;2497;47.410;9.740;2023-07-24T10:51:38;8.00;;;3.90;;
4963;SDS011;2497;47.410;9.740;2023-07-24T10:54:07;7.67;;;4.43;;
4963;SDS011;2497;47.410;9.740;2023-07-24T10:56:36;9.07;;;4.67;;
4963;SDS011;2497;47.410;9.740;2023-07-24T10:59:03;5.90;;;3.77;;
4963;SDS011;2497;47.410;9.740;2023-07-24T11:01:31;5.93;;;4.00;;
4963;SDS011;2497;47.410;9.740;2023-07-24T11:03:59;8.13;;;3.80;;
4963;SDS011;2497;47.410;9.740;2023-07-24T11:06:29;7.20;;;3.53;;
4963;SDS011;2497;47.410;9.740;2023-07-24T11:08:57;8.30;;;4.60;;
4963;SDS011;2497;47.410;9.740;2023-07-24T11:11:28;6.70;;;4.60;;
4963;SDS011;2497;47.410;9.740;2023-07-24T11:13:56;7.33;;;3.80;;
4963;SDS011;2497;47.410;9.740;2023-07-24T11:16:25;11.93;;;5.10;;
4963;SDS011;2497;47.410;9.740;2023-07-24T11:18:52;13.37;;;4.23;;
4963;SDS011;2497;47.410;9.740;2023-07-24T11:21:20;8.27;;;4.37;;
4963;SDS011;2497;47.410;9.740;2023-07-24T11:23:51;9.03;;;3.73;;
4963;SDS011;2497;47.410;9.740;2023-07-24T11:26:20;10.40;;;4.30;;
4963;SDS011;2497;47.410;9.740;2023-07-24T11:28:48;9.67;;;3.97;;
4963;SDS011;2497;47.410;9.740;2023-07-24T11:31:15;6.53;;;4.03;;
4963;SDS011;2497;47.410;9.740;2023-07-24T11:33:49;11.23;;;4.00;;
4963;SDS011;2497;47.410;9.740;2023-07-24T11:36:18;7.57;;;4.07;;
4963;SDS011;2497;47.410;9.740;2023-07-24T11:38:48;8.60;;;3.83;;
4963;SDS011;2497;47.410;9.740;2023-07-24T11:41:20;6.13;;;4.03;;
4963;SDS011;2497;47.410;9.740;2023-07-24T11:43:47;8.30;;;3.90;;
4963;SDS011;2497;47.410;9.740;2023-07-24T11:46:24;10.10;;;4.30;;
4963;SDS011;2497;47.410;9.740;2023-07-24T11:48:53;9.23;;;4.27;;
4963;SDS011;2497;47.410;9.740;2023-07-24T11:51:22;8.23;;;4.40;;
4963;SDS011;2497;47.410;9.740;2023-07-24T11:54:03;9.30;;;4.30;;
4963;SDS011;2497;47.410;9.740;2023-07-24T11:56:32;6.50;;;4.00;;
4963;SDS011;2497;47.410;9.740;2023-07-24T11:59:11;12.40;;;4.37;;
4963;SDS011;2497;47.410;9.740;2023-07-24T12:01:38;14.60;;;5.40;;
4963;SDS011;2497;47.410;9.740;2023-07-24T12:04:05;8.10;;;4.10;;
4963;SDS011;2497;47.410;9.740;2023-07-24T12:06:33;10.17;;;5.50;;
4963;SDS011;2497;47.410;9.740;2023-07-24T12:09:15;12.20;;;5.33;;
4963;SDS011;2497;47.410;9.740;2023-07-24T12:11:48;13.60;;;5.10;;
4963;SDS011;2497;47.410;9.740;2023-07-24T12:14:26;9.57;;;4.83;;
4963;SDS011;2497;47.410;9.740;2023-07-24T12:16:59;7.70;;;4.50;;
4963;SDS011;2497;47.410;9.740;2023-07-24T12:19:27;8.33;;;5.40;;
4963;SDS011;2497;47.410;9.740;2023-07-24T12:21:57;8.53;;;4.27;;
4963;SDS011;2497;47.410;9.740;2023-07-24T12:24:26;9.77;;;5.40;;
4963;SDS011;2497;47.410;9.740;2023-07-24T12:26:53;13.77;;;5.50;;
4963;SDS011;2497;47.410;9.740;2023-07-24T12:29:20;11.00;;;5.33;;
4963;SDS011;2497;47.410;9.740;2023-07-24T12:31:50;8.93;;;4.87;;
4963;SDS011;2497;47.410;9.740;2023-07-24T12:34:17;18.37;;;6.70;;
4963;SDS011;2497;47.410;9.740;2023-07-24T12:36:44;9.47;;;4.60;;
4963;SDS011;2497;47.410;9.740;2023-07-24T12:39:13;9.03;;;5.37;;
4963;SDS011;2497;47.410;9.740;2023-07-24T12:41:46;11.00;;;4.87;;
4963;SDS011;2497;47.410;9.740;2023-07-24T12:44:47;8.27;;;4.00;;
4963;SDS011;2497;47.410;9.740;2023-07-24T12:47:22;7.57;;;3.80;;
4963;SDS011;2497;47.410;9.740;2023-07-24T12:49:51;8.83;;;4.50;;
4963;SDS011;2497;47.410;9.740;2023-07-24T12:52:20;6.97;;;4.43;;
4963;SDS011;2497;47.410;9.740;2023-07-24T12:55:05;7.43;;;4.60;;
4963;SDS011;2497;47.410;9.740;2023-07-24T12:57:37;7.90;;;4.13;;
4963;SDS011;2497;47.410;9.740;2023-07-24T13:00:05;8.77;;;4.50;;
4963;SDS011;2497;47.410;9.740;2023-07-24T13:02:34;9.07;;;4.23;;
4963;SDS011;2497;47.410;9.740;2023-07-24T13:05:01;9.60;;;4.43;;
4963;SDS011;2497;47.410;9.740;2023-07-24T13:07:34;7.50;;;3.60;;
4963;SDS011;2497;47.410;9.740;2023-07-24T13:10:06;12.13;;;3.90;;
4963;SDS011;2497;47.410;9.740;2023-07-24T13:12:34;6.43;;;3.43;;
4963;SDS011;2497;47.410;9.740;2023-07-24T13:15:02;5.97;;;2.90;;
4963;SDS011;2497;47.410;9.740;2023-07-24T13:17:30;5.63;;;3.20;;
4963;SDS011;2497;47.410;9.740;2023-07-24T13:20:01;6.50;;;3.53;;
4963;SDS011;2497;47.410;9.740;2023-07-24T13:22:28;4.00;;;2.93;;
4963;SDS011;2497;47.410;9.740;2023-07-24T13:24:56;7.53;;;3.60;;
4963;SDS011;2497;47.410;9.740;2023-07-24T13:27:23;7.27;;;3.67;;
4963;SDS011;2497;47.410;9.740;2023-07-24T13:29:50;5.33;;;3.10;;
4963;SDS011;2497;47.410;9.740;2023-07-24T13:32:19;5.63;;;2.60;;
4963;SDS011;2497;47.410;9.740;2023-07-24T13:34:48;6.17;;;3.17;;
4963;SDS011;2497;47.410;9.740;2023-07-24T13:37:17;5.20;;;2.80;;
4963;SDS011;2497;47.410;9.740;2023-07-24T13:39:45;4.47;;;2.90;;
4963;SDS011;2497;47.410;9.740;2023-07-24T13:42:12;5.40;;;2.63;;
4963;SDS011;2497;47.410;9.740;2023-07-24T13:44:40;3.23;;;2.40;;
4963;SDS011;2497;47.410;9.740;2023-07-24T13:47:08;6.03;;;3.20;;
4963;SDS011;2497;47.410;9.740;2023-07-24T13:49:36;5.07;;;3.00;;
4963;SDS011;2497;47.410;9.740;2023-07-24T13:52:03;8.53;;;3.00;;
4963;SDS011;2497;47.410;9.740;2023-07-24T13:54:31;7.07;;;2.83;;
4963;SDS011;2497;47.410;9.740;2023-07-24T13:56:58;4.37;;;2.60;;
4963;SDS011;2497;47.410;9.740;2023-07-24T13:59:27;4.00;;;2.33;;
4963;SDS011;2497;47.410;9.740;2023-07-24T14:01:55;4.23;;;2.90;;
4963;SDS011;2497;47.410;9.740;2023-07-24T14:04:23;4.33;;;2.50;;
4963;SDS011;2497;47.410;9.740;2023-07-24T14:07:04;3.60;;;2.50;;
4963;SDS011;2497;47.410;9.740;2023-07-24T14:09:32;5.57;;;2.53;;
4963;SDS011;2497;47.410;9.740;2023-07-24T14:12:00;2.90;;;2.20;;
4963;SDS011;2497;47.410;9.740;2023-07-24T14:14:27;4.50;;;2.10;;
4963;SDS011;2497;47.410;9.740;2023-07-24T14:16:54;4.53;;;2.50;;
4963;SDS011;2497;47.410;9.740;2023-07-24T14:19:22;2.80;;;1.83;;
4963;SDS011;2497;47.410;9.740;2023-07-24T14:21:50;4.40;;;2.30;;
4963;SDS011;2497;47.410;9.740;2023-07-24T14:24:19;3.40;;;2.27;;
4963;SDS011;2497;47.410;9.740;2023-07-24T14:26:48;3.53;;;2.13;;
4963;SDS011;2497;47.410;9.740;2023-07-24T14:29:17;2.37;;;1.67;;
4963;SDS011;2497;47.410;9.740;2023-07-24T14:31:44;4.33;;;2.23;;
4963;SDS011;2497;47.410;9.740;2023-07-24T14:34:12;6.17;;;2.57;;
4963;SDS011;2497;47.410;9.740;2023-07-24T14:36:40;3.33;;;1.83;;
4963;SDS011;2497;47.410;9.740;2023-07-24T14:39:08;5.13;;;2.60;;
4963;SDS011;2497;47.410;9.740;2023-07-24T14:41:38;4.17;;;2.70;;
4963;SDS011;2497;47.410;9.740;2023-07-24T14:44:07;4.73;;;2.00;;
4963;SDS011;2497;47.410;9.740;2023-07-24T14:46:36;5.23;;;2.17;;
4963;SDS011;2497;47.410;9.740;2023-07-24T14:49:05;7.23;;;3.20;;
4963;SDS011;2497;47.410;9.740;2023-07-24T14:51:33;5.63;;;3.00;;
4963;SDS011;2497;47.410;9.740;2023-07-24T14:54:03;3.30;;;2.70;;
4963;SDS011;2497;47.410;9.740;2023-07-24T14:56:34;5.60;;;2.97;;
4963;SDS011;2497;47.410;9.740;2023-07-24T14:59:06;6.57;;;2.80;;
4963;SDS011;2497;47.410;9.740;2023-07-24T15:01:34;6.13;;;2.60;;
4963;SDS011;2497;47.410;9.740;2023-07-24T15:04:02;6.60;;;2.93;;
4963;SDS011;2497;47.410;9.740;2023-07-24T15:06:33;7.30;;;2.93;;
4963;SDS011;2497;47.410;9.740;2023-07-24T15:09:01;5.57;;;2.90;;
4963;SDS011;2497;47.410;9.740;2023-07-24T15:11:30;7.80;;;3.03;;
4963;SDS011;2497;47.410;9.740;2023-07-24T15:14:00;5.90;;;3.20;;
4963;SDS011;2497;47.410;9.740;2023-07-24T15:16:29;7.53;;;3.10;;
4963;SDS011;2497;47.410;9.740;2023-07-24T15:19:00;4.80;;;2.97;;
4963;SDS011;2497;47.410;9.740;2023-07-24T15:21:29;7.10;;;3.53;;